createdAt,value
2018-03-09T00:01:24.624Z,3.67
2018-03-09T00:03:52.556Z,3.57
2018-03-09T00:06:20.506Z,3.68
2018-03-09T00:08:48.577Z,3.71
2018-03-09T00:11:16.511Z,3.61
2018-03-09T00:13:44.573Z,3.56
2018-03-09T00:16:12.535Z,3.50
2018-03-09T00:18:40.483Z,3.46
2018-03-09T00:21:08.635Z,3.42
2018-03-09T00:23:36.595Z,3.42
2018-03-09T00:26:04.546Z,3.35
2018-03-09T00:28:32.530Z,3.44
2018-03-09T00:31:00.486Z,3.43
2018-03-09T00:33:28.433Z,3.63
2018-03-09T00:35:56.453Z,3.46
2018-03-09T00:38:24.397Z,3.62
2018-03-09T00:40:52.440Z,3.61
2018-03-09T00:43:20.480Z,3.62
2018-03-09T00:45:48.532Z,3.52
2018-03-09T00:48:16.589Z,3.46
2018-03-09T00:50:44.878Z,3.59
2018-03-09T00:53:12.835Z,3.48
2018-03-09T00:55:41.688Z,3.35
2018-03-09T00:58:09.611Z,3.40
2018-03-09T01:00:37.632Z,3.36
2018-03-09T01:03:05.607Z,3.58
2018-03-09T01:05:33.692Z,3.40
2018-03-09T01:08:01.722Z,3.48
2018-03-09T01:10:29.743Z,3.48
2018-03-09T01:12:57.865Z,3.56
2018-03-09T01:15:25.938Z,3.67
2018-03-09T01:17:54.672Z,3.73
2018-03-09T01:20:22.746Z,3.70
2018-03-09T01:22:50.917Z,3.77
2018-03-09T01:25:18.989Z,3.87
2018-03-09T01:27:47.173Z,3.72
2018-03-09T01:30:15.215Z,3.70
2018-03-09T01:32:43.360Z,3.77
2018-03-09T01:35:11.338Z,3.87
2018-03-09T01:37:39.368Z,3.78
2018-03-09T01:40:07.396Z,3.91
2018-03-09T01:42:35.412Z,3.88
2018-03-09T01:45:03.462Z,3.95
2018-03-09T01:47:31.449Z,3.95
2018-03-09T01:49:59.503Z,3.89
2018-03-09T01:52:38.352Z,3.80
2018-03-09T01:55:06.398Z,3.83
2018-03-09T01:57:34.466Z,3.82
2018-03-09T02:00:02.507Z,3.88
2018-03-09T02:02:37.055Z,3.82
2018-03-09T02:05:05.054Z,3.82
2018-03-09T02:07:33.720Z,3.82
2018-03-09T02:10:01.707Z,3.83
2018-03-09T02:12:29.751Z,3.85
2018-03-09T02:14:58.586Z,3.82
2018-03-09T02:17:27.584Z,3.95
2018-03-09T02:19:55.857Z,3.88
2018-03-09T02:22:23.928Z,3.93
2018-03-09T02:24:51.921Z,3.95
2018-03-09T02:27:20.742Z,3.94
2018-03-09T02:29:49.428Z,4.10
2018-03-09T02:32:17.399Z,4.02
2018-03-09T02:34:45.337Z,3.88
2018-03-09T02:37:13.336Z,3.82
2018-03-09T02:39:41.365Z,3.92
2018-03-09T02:42:09.349Z,3.91
2018-03-09T02:44:37.347Z,3.91
2018-03-09T02:47:05.342Z,4.03
2018-03-09T02:49:33.387Z,3.99
2018-03-09T02:52:02.065Z,3.99
2018-03-09T02:54:30.180Z,4.10
2018-03-09T02:56:58.184Z,4.01
2018-03-09T02:59:26.159Z,3.83
2018-03-09T03:01:54.267Z,3.85
2018-03-09T03:04:22.240Z,3.91
2018-03-09T03:06:50.662Z,3.92
2018-03-09T03:09:18.630Z,3.97
2018-03-09T03:11:46.582Z,3.97
2018-03-09T03:14:14.521Z,3.93
2018-03-09T03:16:42.586Z,3.98
2018-03-09T03:19:10.662Z,3.85
2018-03-09T03:21:38.627Z,3.95
2018-03-09T03:24:06.575Z,3.80
2018-03-09T03:26:34.669Z,3.82
2018-03-09T03:29:02.665Z,3.73
2018-03-09T03:31:30.626Z,3.86
2018-03-09T03:33:58.761Z,3.77
2018-03-09T03:36:26.677Z,3.62
2018-03-09T03:38:54.641Z,3.59
2018-03-09T03:41:23.433Z,3.67
2018-03-09T03:43:51.380Z,3.77
2018-03-09T03:46:19.322Z,3.57
2018-03-09T03:48:47.303Z,3.62
2018-03-09T03:51:15.226Z,3.65
2018-03-09T03:53:43.185Z,3.89
2018-03-09T03:56:11.156Z,3.89
2018-03-09T03:58:39.127Z,3.74
2018-03-09T04:01:07.123Z,3.84
2018-03-09T04:03:35.105Z,3.67
2018-03-09T04:06:03.109Z,3.60
2018-03-09T04:08:31.074Z,3.80
2018-03-09T04:10:59.522Z,3.64
2018-03-09T04:13:27.499Z,3.72
2018-03-09T04:15:55.497Z,3.64
2018-03-09T04:18:23.811Z,3.67
2018-03-09T04:20:51.743Z,3.60
2018-03-09T04:23:19.815Z,3.63
2018-03-09T04:25:47.764Z,3.57
2018-03-09T04:28:15.755Z,3.68
2018-03-09T04:30:47.103Z,3.72
2018-03-09T04:33:15.046Z,3.76
2018-03-09T04:35:43.023Z,3.87
2018-03-09T04:38:11.009Z,3.79
2018-03-09T04:40:38.936Z,3.97
2018-03-09T04:43:06.947Z,3.74
2018-03-09T04:45:34.940Z,3.76
2018-03-09T04:48:03.411Z,3.83
2018-03-09T04:50:31.370Z,3.82
2018-03-09T04:52:59.418Z,3.83
2018-03-09T04:55:27.389Z,3.87
2018-03-09T04:57:55.358Z,3.89
2018-03-09T05:00:23.325Z,3.90
2018-03-09T05:02:51.322Z,3.91
2018-03-09T05:05:19.312Z,3.86
2018-03-09T05:07:47.310Z,3.75
2018-03-09T05:10:15.962Z,3.87
2018-03-09T05:12:43.916Z,3.73
2018-03-09T05:15:11.895Z,3.54
2018-03-09T05:17:39.854Z,3.60
2018-03-09T05:20:07.836Z,3.50
2018-03-09T05:22:35.822Z,3.57
2018-03-09T05:25:03.762Z,3.57
2018-03-09T05:27:31.811Z,3.60
2018-03-09T05:29:59.815Z,3.43
2018-03-09T05:32:27.742Z,3.54
2018-03-09T05:34:55.698Z,3.46
2018-03-09T05:37:23.637Z,3.48
2018-03-09T05:39:51.598Z,3.56
2018-03-09T05:42:19.565Z,3.58
2018-03-09T05:44:47.530Z,3.56
2018-03-09T05:47:15.555Z,3.55
2018-03-09T05:49:43.518Z,3.53
2018-03-09T05:52:11.485Z,3.45
2018-03-09T05:54:39.397Z,3.39
2018-03-09T05:57:07.445Z,3.47
2018-03-09T05:59:35.392Z,3.45
2018-03-09T06:02:03.360Z,3.65
2018-03-09T06:04:31.694Z,3.75
2018-03-09T06:06:59.605Z,3.56
2018-03-09T06:09:27.581Z,3.60
2018-03-09T06:11:55.606Z,3.61
2018-03-09T06:14:23.677Z,3.68
2018-03-09T06:16:51.683Z,3.64
2018-03-09T06:19:19.705Z,3.61
2018-03-09T06:21:47.694Z,3.71
2018-03-09T06:24:15.642Z,3.82
2018-03-09T06:26:43.634Z,3.80
2018-03-09T06:29:11.582Z,3.74
2018-03-09T06:31:39.552Z,3.74
2018-03-09T06:34:07.576Z,3.80
2018-03-09T06:36:35.608Z,3.76
2018-03-09T06:39:03.620Z,3.72
2018-03-09T06:41:31.619Z,3.83
2018-03-09T06:43:59.567Z,3.91
2018-03-09T06:46:27.640Z,3.95
2018-03-09T06:48:55.580Z,3.88
2018-03-09T06:51:23.557Z,3.95
2018-03-09T06:53:51.583Z,4.03
2018-03-09T06:56:19.525Z,4.05
2018-03-09T06:58:47.495Z,4.02
2018-03-09T07:01:15.464Z,3.97
2018-03-09T07:03:44.765Z,3.97
2018-03-09T07:06:12.761Z,3.73
2018-03-09T07:08:40.818Z,3.85
2018-03-09T07:11:08.788Z,3.74
2018-03-09T07:13:36.770Z,3.68
2018-03-09T07:16:04.787Z,3.76
2018-03-09T07:18:32.812Z,3.76
2018-03-09T07:21:02.316Z,3.69
2018-03-09T07:23:30.294Z,3.62
2018-03-09T07:25:58.681Z,3.56
2018-03-09T07:28:26.711Z,3.62
2018-03-09T07:30:54.763Z,3.58
2018-03-09T07:33:23.077Z,3.60
2018-03-09T07:35:51.436Z,3.63
2018-03-09T07:38:19.494Z,3.80
2018-03-09T07:40:48.122Z,3.82
2018-03-09T07:43:17.939Z,3.87
2018-03-09T07:45:46.043Z,3.94
2018-03-09T07:48:14.123Z,3.90
2018-03-09T07:50:43.090Z,3.89
2018-03-09T07:53:11.191Z,3.87
2018-03-09T07:55:39.204Z,4.02
2018-03-09T07:58:07.328Z,4.02
2018-03-09T08:00:35.376Z,3.98
2018-03-09T08:03:03.464Z,4.14
2018-03-09T08:05:32.413Z,4.23
2018-03-09T08:08:00.485Z,4.22
2018-03-09T08:10:28.493Z,4.24
2018-03-09T08:12:56.546Z,4.21
2018-03-09T08:15:24.620Z,4.19
2018-03-09T08:17:52.772Z,4.18
2018-03-09T08:20:20.828Z,4.21
2018-03-09T08:22:49.692Z,4.31
2018-03-09T08:25:17.807Z,4.23
2018-03-09T08:27:45.804Z,4.32
2018-03-09T08:30:13.927Z,4.30
2018-03-09T08:32:41.997Z,4.31
2018-03-09T08:35:09.994Z,4.39
2018-03-09T08:37:38.199Z,4.58
2018-03-09T08:40:06.217Z,4.69
2018-03-09T08:42:34.259Z,4.60
2018-03-09T08:45:02.314Z,4.49
2018-03-09T08:47:30.406Z,4.34
2018-03-09T08:49:58.540Z,4.57
2018-03-09T08:52:26.515Z,4.62
2018-03-09T08:54:54.546Z,4.53
2018-03-09T08:57:22.535Z,4.54
2018-03-09T08:59:51.205Z,4.63
2018-03-09T09:02:19.206Z,4.72
2018-03-09T09:04:47.230Z,4.73
2018-03-09T09:07:15.921Z,4.67
2018-03-09T09:09:44.781Z,4.88
2018-03-09T09:12:12.951Z,4.91
2018-03-09T09:14:41.122Z,5.01
2018-03-09T09:17:09.305Z,5.06
2018-03-09T09:19:37.464Z,5.02
2018-03-09T09:22:05.541Z,5.16
2018-03-09T09:24:33.663Z,5.16
2018-03-09T09:27:01.754Z,5.18
2018-03-09T09:29:29.842Z,5.06
2018-03-09T09:31:58.029Z,5.16
2018-03-09T09:34:26.101Z,5.25
2018-03-09T09:36:54.151Z,5.18
2018-03-09T09:39:22.174Z,5.08
2018-03-09T09:41:50.215Z,5.08
2018-03-09T09:44:18.161Z,5.09
2018-03-09T09:46:46.145Z,5.05
2018-03-09T09:49:14.149Z,4.98
2018-03-09T09:51:42.273Z,4.96
2018-03-09T09:54:10.334Z,5.10
2018-03-09T09:56:38.508Z,4.98
2018-03-09T09:59:06.514Z,5.02
2018-03-09T10:01:34.454Z,5.20
2018-03-09T10:04:02.522Z,5.13
2018-03-09T10:06:30.564Z,5.19
2018-03-09T10:08:58.661Z,5.43
2018-03-09T10:11:26.669Z,5.28
2018-03-09T10:13:54.659Z,5.30
2018-03-09T10:16:22.646Z,5.39
2018-03-09T10:18:50.717Z,5.47
2018-03-09T10:21:18.720Z,5.37
2018-03-09T10:23:46.685Z,5.51
2018-03-09T10:26:14.661Z,5.66
2018-03-09T10:28:42.636Z,5.72
2018-03-09T10:31:10.605Z,5.61
2018-03-09T10:33:38.600Z,5.62
2018-03-09T10:36:06.537Z,5.60
2018-03-09T10:38:34.500Z,5.59
2018-03-09T10:41:02.405Z,5.38
2018-03-09T10:43:30.628Z,5.51
2018-03-09T10:45:58.574Z,5.47
2018-03-09T10:48:26.519Z,5.65
2018-03-09T10:50:54.498Z,5.64
2018-03-09T10:53:22.455Z,5.51
2018-03-09T10:55:50.486Z,5.32
2018-03-09T10:58:18.461Z,5.37
2018-03-09T11:00:51.242Z,5.40
2018-03-09T11:03:19.188Z,5.32
2018-03-09T11:05:47.237Z,5.24
2018-03-09T11:08:15.185Z,5.18
2018-03-09T11:10:43.126Z,5.01
2018-03-09T11:13:11.175Z,5.20
2018-03-09T11:15:39.114Z,5.33
2018-03-09T11:18:07.106Z,5.27
2018-03-09T11:20:35.235Z,5.08
2018-03-09T11:23:03.210Z,5.09
2018-03-09T11:25:31.217Z,5.13
2018-03-09T11:27:59.183Z,5.25
2018-03-09T11:30:27.188Z,5.32
2018-03-09T11:32:55.265Z,5.16
2018-03-09T11:35:23.311Z,5.08
2018-03-09T11:37:51.518Z,5.07
2018-03-09T11:40:19.488Z,5.02
2018-03-09T11:42:47.617Z,5.17
2018-03-09T11:45:15.634Z,5.02
2018-03-09T11:47:43.613Z,5.07
2018-03-09T11:50:11.649Z,5.12
2018-03-09T11:52:39.875Z,5.32
2018-03-09T11:55:07.944Z,5.20
2018-03-09T11:57:35.983Z,4.93
2018-03-09T12:00:03.973Z,4.93
2018-03-09T12:02:31.983Z,5.09
2018-03-09T12:04:59.967Z,5.06
2018-03-09T12:07:27.933Z,5.10
2018-03-09T12:09:55.921Z,5.11
2018-03-09T12:12:23.928Z,5.10
2018-03-09T12:14:51.904Z,5.15
2018-03-09T12:17:19.971Z,5.30
2018-03-09T12:19:47.983Z,5.47
2018-03-09T12:22:16.041Z,5.46
2018-03-09T12:24:44.224Z,5.28
2018-03-09T12:27:12.205Z,5.34
2018-03-09T12:29:40.229Z,5.31
2018-03-09T12:32:08.254Z,5.37
2018-03-09T12:34:36.228Z,5.47
2018-03-09T12:37:04.226Z,5.46
2018-03-09T12:39:32.175Z,5.47
2018-03-09T12:42:00.164Z,5.59
2018-03-09T12:44:28.229Z,5.71
2018-03-09T12:46:56.224Z,5.78
2018-03-09T12:49:24.207Z,5.94
2018-03-09T12:51:52.264Z,5.92
2018-03-09T12:54:20.296Z,5.74
2018-03-09T12:56:48.446Z,5.84
2018-03-09T12:59:16.481Z,5.83
2018-03-09T13:01:45.327Z,5.89
2018-03-09T13:04:13.192Z,5.82
2018-03-09T13:06:41.148Z,6.11
2018-03-09T13:09:11.719Z,6.29
2018-03-09T13:11:39.722Z,6.28
2018-03-09T13:14:11.536Z,6.15
2018-03-09T13:16:41.486Z,6.44
2018-03-09T13:19:09.574Z,6.41
2018-03-09T13:21:37.563Z,6.27
2018-03-09T13:24:05.503Z,6.30
2018-03-09T13:26:33.466Z,6.35
2018-03-09T13:29:01.415Z,6.38
2018-03-09T13:31:29.379Z,6.49
2018-03-09T13:33:57.376Z,6.46
2018-03-09T13:36:25.345Z,6.39
2018-03-09T13:38:53.402Z,6.48
2018-03-09T13:41:21.354Z,6.39
2018-03-09T13:43:49.716Z,6.46
2018-03-09T13:46:17.867Z,6.34
2018-03-09T13:48:46.650Z,6.24
2018-03-09T13:51:14.664Z,6.35
2018-03-09T13:53:42.692Z,6.55
2018-03-09T13:56:10.665Z,6.59
2018-03-09T13:58:38.781Z,6.51
2018-03-09T14:01:06.826Z,6.40
2018-03-09T14:03:34.898Z,6.56
2018-03-09T14:06:02.929Z,6.53
2018-03-09T14:08:30.949Z,6.65
2018-03-09T14:10:58.971Z,6.53
2018-03-09T14:13:27.003Z,6.61
2018-03-09T14:15:55.217Z,6.82
2018-03-09T14:18:23.249Z,7.08
2018-03-09T14:23:25.493Z,7.14
2018-03-09T14:25:54.256Z,6.97
2018-03-09T14:28:22.536Z,6.76
2018-03-09T14:30:50.566Z,6.63
2018-03-09T14:33:18.526Z,6.67
2018-03-09T14:35:46.493Z,6.42
2018-03-09T14:38:15.338Z,6.36
2018-03-09T14:40:43.406Z,6.45
2018-03-09T14:43:11.489Z,6.37
2018-03-09T14:45:39.431Z,6.48
2018-03-09T14:48:07.396Z,6.45
2018-03-09T14:50:35.415Z,6.30
2018-03-09T14:53:03.358Z,6.36
2018-03-09T14:55:31.288Z,6.25
2018-03-09T14:57:59.244Z,6.20
2018-03-09T15:00:27.370Z,6.22
2018-03-09T15:02:55.383Z,6.20
2018-03-09T15:05:23.312Z,6.40
2018-03-09T15:07:51.235Z,6.39
2018-03-09T15:10:19.231Z,6.39
2018-03-09T15:12:47.241Z,6.38
2018-03-09T15:15:15.252Z,6.30
2018-03-09T15:17:43.259Z,6.28
2018-03-09T15:20:11.303Z,6.25
2018-03-09T15:22:39.241Z,6.31
2018-03-09T15:25:07.233Z,6.24
2018-03-09T15:27:35.239Z,6.20
2018-03-09T15:30:04.175Z,6.12
2018-03-09T15:32:32.105Z,6.01
2018-03-09T15:35:00.213Z,6.02
2018-03-09T15:37:28.371Z,5.93
2018-03-09T15:39:56.366Z,5.94
2018-03-09T15:42:24.564Z,6.02
2018-03-09T15:44:52.525Z,6.05
2018-03-09T15:47:21.296Z,5.95
2018-03-09T15:49:49.430Z,5.95
2018-03-09T15:52:17.461Z,6.01
2018-03-09T15:54:45.569Z,5.98
2018-03-09T15:57:13.558Z,5.93
2018-03-09T15:59:41.581Z,6.07
2018-03-09T16:02:09.583Z,6.01
2018-03-09T16:04:37.544Z,5.96
2018-03-09T16:07:05.540Z,5.99
2018-03-09T16:09:33.494Z,6.04
2018-03-09T16:12:01.528Z,6.06
2018-03-09T16:14:29.681Z,6.21
2018-03-09T16:16:57.809Z,6.27
2018-03-09T16:19:26.392Z,6.08
2018-03-09T16:21:54.447Z,6.20
2018-03-09T16:24:22.432Z,6.33
2018-03-09T16:26:50.471Z,6.29
2018-03-09T16:29:18.402Z,6.15
2018-03-09T16:31:46.397Z,6.37
2018-03-09T16:34:15.378Z,6.28
2018-03-09T16:36:43.580Z,6.39
2018-03-09T16:39:11.637Z,6.36
2018-03-09T16:41:39.855Z,6.36
2018-03-09T16:44:07.847Z,6.37
2018-03-09T16:46:35.879Z,6.52
2018-03-09T16:49:03.828Z,6.43
2018-03-09T16:51:31.851Z,6.40
2018-03-09T16:53:59.797Z,6.34
2018-03-09T16:56:27.744Z,6.31
2018-03-09T16:58:55.711Z,6.04
2018-03-09T17:01:23.706Z,6.02
2018-03-09T17:03:51.698Z,5.91
2018-03-09T17:06:19.669Z,5.91
2018-03-09T17:08:47.621Z,5.87
2018-03-09T17:11:15.545Z,5.90
2018-03-09T17:13:43.563Z,5.86
2018-03-09T17:16:11.513Z,5.90
2018-03-09T17:18:39.551Z,5.80
2018-03-09T17:21:07.590Z,5.80
2018-03-09T17:23:35.549Z,5.72
2018-03-09T17:26:03.533Z,5.76
2018-03-09T17:28:31.614Z,5.80
2018-03-09T17:31:00.207Z,5.75
2018-03-09T17:33:28.370Z,5.67
2018-03-09T17:35:56.568Z,5.70
2018-03-09T17:38:24.705Z,5.62
2018-03-09T17:40:52.776Z,5.62
2018-03-09T17:43:20.888Z,5.56
2018-03-09T17:45:48.917Z,5.66
2018-03-09T17:48:16.930Z,5.56
2018-03-09T17:50:44.993Z,5.43
2018-03-09T17:53:12.994Z,5.43
2018-03-09T17:55:40.943Z,5.47
2018-03-09T17:58:08.859Z,5.50
2018-03-09T18:00:36.822Z,5.63
2018-03-09T18:03:04.746Z,5.47
2018-03-09T18:05:32.703Z,5.34
2018-03-09T18:08:00.734Z,5.19
2018-03-09T18:10:28.847Z,5.26
2018-03-09T18:12:56.982Z,5.13
2018-03-09T18:15:24.921Z,5.17
2018-03-09T18:17:52.895Z,5.12
2018-03-09T18:20:20.840Z,5.07
2018-03-09T18:22:48.761Z,5.07
2018-03-09T18:25:16.852Z,5.04
2018-03-09T18:27:44.816Z,4.98
2018-03-09T18:30:12.797Z,4.90
2018-03-09T18:32:40.749Z,4.82
2018-03-09T18:35:08.741Z,4.88
2018-03-09T18:37:37.532Z,4.90
2018-03-09T18:40:05.553Z,4.75
2018-03-09T18:42:33.509Z,4.73
2018-03-09T18:45:01.426Z,4.71
2018-03-09T18:47:29.376Z,4.61
2018-03-09T18:49:57.374Z,4.64
2018-03-09T18:52:25.413Z,4.63
2018-03-09T18:54:53.430Z,4.62
2018-03-09T18:57:21.405Z,4.46
2018-03-09T18:59:50.211Z,4.45
2018-03-09T19:02:18.199Z,4.41
2018-03-09T19:04:46.168Z,4.32
2018-03-09T19:07:14.188Z,4.29
2018-03-09T19:09:42.208Z,4.27
2018-03-09T19:12:10.242Z,4.24
2018-03-09T19:14:40.012Z,4.20
2018-03-09T19:17:07.986Z,4.14
2018-03-09T19:19:36.600Z,4.15
2018-03-09T19:22:04.583Z,4.05
2018-03-09T19:24:32.521Z,3.94
2018-03-09T19:27:00.494Z,3.93
2018-03-09T19:29:28.514Z,3.91
2018-03-09T19:31:56.461Z,3.91
2018-03-09T19:34:24.452Z,3.89
2018-03-09T19:36:53.168Z,3.80
2018-03-09T19:39:21.086Z,3.75
2018-03-09T19:41:49.126Z,3.75
2018-03-09T19:44:17.082Z,3.75
2018-03-09T19:46:45.056Z,3.73
2018-03-09T19:49:13.028Z,3.67
2018-03-09T19:51:41.187Z,3.74
2018-03-09T19:54:09.245Z,3.68
2018-03-09T19:56:37.213Z,3.65
2018-03-09T19:59:05.210Z,3.63
2018-03-09T20:01:34.144Z,3.60
2018-03-09T20:04:02.162Z,3.58
2018-03-09T20:06:30.171Z,3.47
2018-03-09T20:08:58.190Z,3.46
2018-03-09T20:11:26.397Z,3.43
2018-03-09T20:13:54.337Z,3.40
2018-03-09T20:16:22.326Z,3.34
2018-03-09T20:18:50.273Z,3.21
2018-03-09T20:21:18.275Z,3.25
2018-03-09T20:23:46.346Z,3.19
2018-03-09T20:26:14.306Z,3.16
2018-03-09T20:28:42.248Z,3.15
2018-03-09T20:31:10.266Z,3.16
2018-03-09T20:33:38.268Z,3.08
2018-03-09T20:36:06.205Z,3.21
2018-03-09T20:38:34.176Z,3.12
2018-03-09T20:41:02.304Z,3.21
2018-03-09T20:43:30.785Z,3.33
2018-03-09T20:45:59.478Z,3.21
2018-03-09T20:48:27.503Z,3.18
2018-03-09T20:50:55.842Z,3.17
2018-03-09T20:53:23.952Z,3.19
2018-03-09T20:55:51.953Z,3.30
2018-03-09T20:58:19.971Z,3.25
2018-03-09T21:00:48.172Z,2.98
2018-03-09T21:03:17.252Z,2.94
2018-03-09T21:05:45.401Z,2.85
2018-03-09T21:08:13.417Z,2.79
2018-03-09T21:10:41.452Z,2.66
2018-03-09T21:13:09.537Z,2.49
2018-03-09T21:15:37.469Z,2.37
2018-03-09T21:18:05.421Z,2.35
2018-03-09T21:20:33.378Z,2.41
2018-03-09T21:23:01.297Z,2.50
2018-03-09T21:25:29.474Z,2.51
2018-03-09T21:27:57.534Z,2.51
2018-03-09T21:30:25.657Z,2.51
2018-03-09T21:32:53.820Z,2.52
2018-03-09T21:35:21.762Z,2.52
2018-03-09T21:37:49.729Z,2.51
2018-03-09T21:40:17.732Z,2.47
2018-03-09T21:42:45.804Z,2.46
2018-03-09T21:45:14.565Z,2.40
2018-03-09T21:47:42.699Z,2.36
2018-03-09T21:50:10.975Z,2.38
2018-03-09T21:52:38.967Z,2.29
2018-03-09T21:55:06.954Z,2.23
2018-03-09T21:57:35.070Z,2.08
2018-03-09T22:00:03.100Z,2.15
2018-03-09T22:02:31.085Z,2.00
2018-03-09T22:04:59.110Z,2.03
2018-03-09T22:07:27.129Z,2.08
2018-03-09T22:09:55.226Z,2.11
2018-03-09T22:12:23.988Z,2.11
2018-03-09T22:14:52.071Z,2.10
2018-03-09T22:17:20.157Z,2.11
2018-03-09T22:19:48.118Z,2.08
2018-03-09T22:22:16.182Z,2.07
2018-03-09T22:24:44.143Z,2.01
2018-03-09T22:27:12.102Z,1.91
2018-03-09T22:29:40.053Z,1.83
2018-03-09T22:32:08.162Z,1.82
2018-03-09T22:34:36.111Z,1.76
2018-03-09T22:37:04.234Z,1.66
2018-03-09T22:39:32.204Z,1.69
2018-03-09T22:42:00.889Z,1.71
2018-03-09T22:44:28.860Z,1.87
2018-03-09T22:46:56.794Z,2.24
2018-03-09T22:49:24.767Z,2.34
2018-03-09T22:51:52.732Z,2.32
2018-03-09T22:54:20.756Z,2.14
2018-03-09T22:56:48.825Z,2.15
2018-03-09T22:59:16.900Z,1.95
2018-03-09T23:01:44.863Z,1.87
2018-03-09T23:04:12.833Z,1.76
2018-03-09T23:06:41.620Z,1.69
2018-03-09T23:09:09.828Z,1.58
2018-03-09T23:11:37.816Z,1.52
2018-03-09T23:14:05.890Z,1.35
2018-03-09T23:16:33.944Z,1.26
2018-03-09T23:19:01.922Z,1.05
2018-03-09T23:21:29.876Z,1.05
2018-03-09T23:23:57.848Z,1.06
2018-03-09T23:26:25.817Z,0.90
2018-03-09T23:28:53.789Z,0.97
2018-03-09T23:31:21.856Z,1.03
2018-03-09T23:33:49.923Z,1.02
2018-03-09T23:36:18.032Z,0.90
2018-03-09T23:38:46.076Z,0.89
2018-03-09T23:41:14.821Z,0.79
2018-03-09T23:43:42.925Z,0.86
2018-03-09T23:46:12.101Z,0.92
2018-03-09T23:48:40.116Z,1.06
2018-03-09T23:51:08.329Z,1.16
2018-03-09T23:53:36.378Z,1.25
2018-03-09T23:56:05.627Z,1.25
2018-03-09T23:58:33.646Z,1.29
